sensor_id;sensor_type;location;lat;lon;timestamp;pressure;altitude;pressure_sealevel;temperature
85096;BMP280;75436;53.502;10.030;2024-03-07T00:02:14;102119.38;;;3.58
85096;BMP280;75436;53.502;10.030;2024-03-07T00:04:39;102122.44;;;3.55
85096;BMP280;75436;53.502;10.030;2024-03-07T00:07:06;102127.63;;;3.55
85096;BMP280;75436;53.502;10.030;2024-03-07T00:09:33;102129.41;;;3.54
85096;BMP280;75436;53.502;10.030;2024-03-07T00:11:59;102121.59;;;3.66
85096;BMP280;75436;53.502;10.030;2024-03-07T00:14:25;102136.63;;;3.64
85096;BMP280;75436;53.502;10.030;2024-03-07T00:16:56;102131.50;;;3.80
85096;BMP280;75436;53.502;10.030;2024-03-07T00:19:22;102123.84;;;4.01
85096;BMP280;75436;53.502;10.030;2024-03-07T00:21:54;102143.81;;;4.12
85096;BMP280;75436;53.502;10.030;2024-03-07T00:24:21;102147.50;;;4.16
85096;BMP280;75436;53.502;10.030;2024-03-07T00:26:46;102165.72;;;4.04
85096;BMP280;75436;53.502;10.030;2024-03-07T00:29:15;102183.59;;;4.12
85096;BMP280;75436;53.502;10.030;2024-03-07T00:31:43;102163.53;;;4.24
85096;BMP280;75436;53.502;10.030;2024-03-07T00:34:08;102183.84;;;4.27
85096;BMP280;75436;53.502;10.030;2024-03-07T00:36:35;102192.44;;;4.28
85096;BMP280;75436;53.502;10.030;2024-03-07T00:39:00;102186.50;;;4.43
85096;BMP280;75436;53.502;10.030;2024-03-07T00:41:26;102217.31;;;4.35
85096;BMP280;75436;53.502;10.030;2024-03-07T00:43:51;102209.81;;;4.38
85096;BMP280;75436;53.502;10.030;2024-03-07T00:46:16;102203.03;;;4.37
85096;BMP280;75436;53.502;10.030;2024-03-07T00:48:42;102195.06;;;4.44
85096;BMP280;75436;53.502;10.030;2024-03-07T00:51:07;102191.84;;;4.53
85096;BMP280;75436;53.502;10.030;2024-03-07T00:53:34;102199.44;;;4.55
85096;BMP280;75436;53.502;10.030;2024-03-07T00:55:59;102199.22;;;4.56
85096;BMP280;75436;53.502;10.030;2024-03-07T00:58:25;102200.56;;;4.59
85096;BMP280;75436;53.502;10.030;2024-03-07T01:00:50;102198.75;;;4.59
85096;BMP280;75436;53.502;10.030;2024-03-07T01:03:16;102201.25;;;4.54
85096;BMP280;75436;53.502;10.030;2024-03-07T01:05:43;102195.81;;;4.56
85096;BMP280;75436;53.502;10.030;2024-03-07T01:08:08;102192.75;;;4.59
85096;BMP280;75436;53.502;10.030;2024-03-07T01:10:34;102191.88;;;4.69
85096;BMP280;75436;53.502;10.030;2024-03-07T01:12:59;102178.09;;;4.69
85096;BMP280;75436;53.502;10.030;2024-03-07T01:15:28;102182.63;;;4.78
85096;BMP280;75436;53.502;10.030;2024-03-07T01:17:53;102187.53;;;4.75
85096;BMP280;75436;53.502;10.030;2024-03-07T01:20:19;102183.94;;;4.76
85096;BMP280;75436;53.502;10.030;2024-03-07T01:22:44;102189.91;;;4.76
85096;BMP280;75436;53.502;10.030;2024-03-07T01:25:10;102189.44;;;4.79
85096;BMP280;75436;53.502;10.030;2024-03-07T01:27:37;102185.00;;;4.96
85096;BMP280;75436;53.502;10.030;2024-03-07T01:30:04;102206.06;;;4.94
85096;BMP280;75436;53.502;10.030;2024-03-07T01:32:33;102197.41;;;4.89
85096;BMP280;75436;53.502;10.030;2024-03-07T01:34:59;102200.78;;;4.90
85096;BMP280;75436;53.502;10.030;2024-03-07T01:37:24;102195.84;;;4.88
85096;BMP280;75436;53.502;10.030;2024-03-07T01:39:49;102201.41;;;4.96
85096;BMP280;75436;53.502;10.030;2024-03-07T01:42:15;102204.50;;;4.94
85096;BMP280;75436;53.502;10.030;2024-03-07T01:44:40;102207.34;;;4.92
85096;BMP280;75436;53.502;10.030;2024-03-07T01:47:07;102206.25;;;4.88
85096;BMP280;75436;53.502;10.030;2024-03-07T01:49:32;102199.78;;;4.91
85096;BMP280;75436;53.502;10.030;2024-03-07T01:51:58;102202.41;;;4.95
85096;BMP280;75436;53.502;10.030;2024-03-07T01:54:25;102209.97;;;4.92
85096;BMP280;75436;53.502;10.030;2024-03-07T01:56:52;102205.53;;;4.93
85096;BMP280;75436;53.502;10.030;2024-03-07T01:59:18;102206.63;;;4.96
85096;BMP280;75436;53.502;10.030;2024-03-07T02:01:45;102205.84;;;4.96
85096;BMP280;75436;53.502;10.030;2024-03-07T02:04:12;102209.78;;;4.98
85096;BMP280;75436;53.502;10.030;2024-03-07T02:06:37;102216.22;;;5.12
85096;BMP280;75436;53.502;10.030;2024-03-07T02:09:03;102229.91;;;5.03
85096;BMP280;75436;53.502;10.030;2024-03-07T02:11:29;102224.13;;;5.01
85096;BMP280;75436;53.502;10.030;2024-03-07T02:13:55;102224.91;;;5.01
85096;BMP280;75436;53.502;10.030;2024-03-07T02:16:20;102218.59;;;4.97
85096;BMP280;75436;53.502;10.030;2024-03-07T02:18:46;102215.22;;;4.97
85096;BMP280;75436;53.502;10.030;2024-03-07T02:21:12;102213.38;;;4.97
85096;BMP280;75436;53.502;10.030;2024-03-07T02:23:37;102218.94;;;5.01
85096;BMP280;75436;53.502;10.030;2024-03-07T02:26:03;102222.09;;;5.03
85096;BMP280;75436;53.502;10.030;2024-03-07T02:28:29;102245.31;;;5.04
85096;BMP280;75436;53.502;10.030;2024-03-07T02:30:54;102234.88;;;5.04
85096;BMP280;75436;53.502;10.030;2024-03-07T02:33:20;102245.03;;;5.06
85096;BMP280;75436;53.502;10.030;2024-03-07T02:35:45;102247.66;;;5.06
85096;BMP280;75436;53.502;10.030;2024-03-07T02:38:32;102258.16;;;5.11
85096;BMP280;75436;53.502;10.030;2024-03-07T02:40:59;102261.16;;;5.03
85096;BMP280;75436;53.502;10.030;2024-03-07T02:43:25;102260.44;;;5.07
85096;BMP280;75436;53.502;10.030;2024-03-07T02:45:50;102266.66;;;5.06
85096;BMP280;75436;53.502;10.030;2024-03-07T02:48:15;102263.75;;;5.03
85096;BMP280;75436;53.502;10.030;2024-03-07T02:50:43;102276.66;;;5.14
85096;BMP280;75436;53.502;10.030;2024-03-07T02:53:09;102277.78;;;5.18
85096;BMP280;75436;53.502;10.030;2024-03-07T02:55:34;102290.66;;;5.08
85096;BMP280;75436;53.502;10.030;2024-03-07T02:57:59;102281.41;;;5.01
85096;BMP280;75436;53.502;10.030;2024-03-07T03:00:25;102271.56;;;5.03
85096;BMP280;75436;53.502;10.030;2024-03-07T03:02:57;102272.56;;;5.02
85096;BMP280;75436;53.502;10.030;2024-03-07T03:05:22;102255.94;;;5.03
85096;BMP280;75436;53.502;10.030;2024-03-07T03:07:49;102263.91;;;4.96
85096;BMP280;75436;53.502;10.030;2024-03-07T03:10:27;102258.13;;;4.94
85096;BMP280;75436;53.502;10.030;2024-03-07T03:12:54;102254.78;;;4.94
85096;BMP280;75436;53.502;10.030;2024-03-07T03:15:24;102254.78;;;4.94
85096;BMP280;75436;53.502;10.030;2024-03-07T03:17:50;102255.72;;;5.04
85096;BMP280;75436;53.502;10.030;2024-03-07T03:20:17;102260.25;;;4.97
85096;BMP280;75436;53.502;10.030;2024-03-07T03:22:56;102257.38;;;4.94
85096;BMP280;75436;53.502;10.030;2024-03-07T03:25:21;102263.91;;;4.96
85096;BMP280;75436;53.502;10.030;2024-03-07T03:27:48;102265.31;;;5.04
85096;BMP280;75436;53.502;10.030;2024-03-07T03:30:14;102272.44;;;5.08
85096;BMP280;75436;53.502;10.030;2024-03-07T03:32:41;102285.38;;;5.03
85096;BMP280;75436;53.502;10.030;2024-03-07T03:35:07;102301.13;;;4.97
85096;BMP280;75436;53.502;10.030;2024-03-07T03:37:47;102303.25;;;5.00
85096;BMP280;75436;53.502;10.030;2024-03-07T03:40:13;102309.44;;;4.94
85096;BMP280;75436;53.502;10.030;2024-03-07T03:42:42;102312.53;;;5.07
85096;BMP280;75436;53.502;10.030;2024-03-07T03:45:09;102314.53;;;4.89
85096;BMP280;75436;53.502;10.030;2024-03-07T03:47:39;102320.34;;;5.07
85096;BMP280;75436;53.502;10.030;2024-03-07T03:50:06;102344.47;;;5.03
85096;BMP280;75436;53.502;10.030;2024-03-07T03:52:32;102334.41;;;4.95
85096;BMP280;75436;53.502;10.030;2024-03-07T03:54:58;102340.25;;;5.02
85096;BMP280;75436;53.502;10.030;2024-03-07T03:57:28;102342.66;;;5.03
85096;BMP280;75436;53.502;10.030;2024-03-07T03:59:54;102349.97;;;4.79
85096;BMP280;75436;53.502;10.030;2024-03-07T04:02:24;102329.88;;;4.74
85096;BMP280;75436;53.502;10.030;2024-03-07T04:04:50;102327.66;;;4.66
85096;BMP280;75436;53.502;10.030;2024-03-07T04:07:19;102320.22;;;4.86
85096;BMP280;75436;53.502;10.030;2024-03-07T04:09:45;102337.31;;;4.82
85096;BMP280;75436;53.502;10.030;2024-03-07T04:12:11;102342.47;;;4.77
85096;BMP280;75436;53.502;10.030;2024-03-07T04:14:39;102342.84;;;4.86
85096;BMP280;75436;53.502;10.030;2024-03-07T04:17:06;102353.31;;;4.74
85096;BMP280;75436;53.502;10.030;2024-03-07T04:19:34;102360.16;;;4.80
85096;BMP280;75436;53.502;10.030;2024-03-07T04:22:01;102359.28;;;4.75
85096;BMP280;75436;53.502;10.030;2024-03-07T04:24:28;102369.31;;;4.55
85096;BMP280;75436;53.502;10.030;2024-03-07T04:26:54;102354.06;;;4.59
85096;BMP280;75436;53.502;10.030;2024-03-07T04:29:20;102355.16;;;4.63
85096;BMP280;75436;53.502;10.030;2024-03-07T04:31:45;102371.44;;;4.69
85096;BMP280;75436;53.502;10.030;2024-03-07T04:34:11;102374.31;;;4.57
85096;BMP280;75436;53.502;10.030;2024-03-07T04:36:36;102357.56;;;4.53
85096;BMP280;75436;53.502;10.030;2024-03-07T04:39:01;102347.50;;;4.45
85096;BMP280;75436;53.502;10.030;2024-03-07T04:41:29;102352.84;;;4.38
85096;BMP280;75436;53.502;10.030;2024-03-07T04:43:54;102354.56;;;4.33
85096;BMP280;75436;53.502;10.030;2024-03-07T04:46:20;102367.47;;;4.39
85096;BMP280;75436;53.502;10.030;2024-03-07T04:48:45;102391.19;;;4.31
85096;BMP280;75436;53.502;10.030;2024-03-07T04:51:12;102401.38;;;4.33
85096;BMP280;75436;53.502;10.030;2024-03-07T04:53:37;102403.88;;;4.17
85096;BMP280;75436;53.502;10.030;2024-03-07T04:56:07;102398.78;;;4.33
85096;BMP280;75436;53.502;10.030;2024-03-07T04:58:35;102412.16;;;4.14
85096;BMP280;75436;53.502;10.030;2024-03-07T05:01:01;102418.44;;;4.06
85096;BMP280;75436;53.502;10.030;2024-03-07T05:03:27;102412.94;;;4.14
85096;BMP280;75436;53.502;10.030;2024-03-07T05:05:53;102426.03;;;4.08
85096;BMP280;75436;53.502;10.030;2024-03-07T05:08:18;102442.00;;;4.23
85096;BMP280;75436;53.502;10.030;2024-03-07T05:10:43;102481.88;;;4.05
85096;BMP280;75436;53.502;10.030;2024-03-07T05:13:09;102495.00;;;4.22
85096;BMP280;75436;53.502;10.030;2024-03-07T05:15:34;102519.16;;;4.11
85096;BMP280;75436;53.502;10.030;2024-03-07T05:17:59;102510.34;;;4.00
85096;BMP280;75436;53.502;10.030;2024-03-07T05:20:25;102509.19;;;3.97
85096;BMP280;75436;53.502;10.030;2024-03-07T05:22:53;102508.78;;;3.99
85096;BMP280;75436;53.502;10.030;2024-03-07T05:25:20;102537.25;;;4.06
85096;BMP280;75436;53.502;10.030;2024-03-07T05:27:47;102538.13;;;3.89
85096;BMP280;75436;53.502;10.030;2024-03-07T05:30:15;102549.72;;;3.86
85096;BMP280;75436;53.502;10.030;2024-03-07T05:32:40;102535.66;;;3.94
85096;BMP280;75436;53.502;10.030;2024-03-07T05:35:06;102567.88;;;3.93
85096;BMP280;75436;53.502;10.030;2024-03-07T05:37:33;102569.84;;;3.79
85096;BMP280;75436;53.502;10.030;2024-03-07T05:39:58;102553.53;;;3.61
85096;BMP280;75436;53.502;10.030;2024-03-07T05:42:24;102547.41;;;3.67
85096;BMP280;75436;53.502;10.030;2024-03-07T05:44:51;102579.72;;;3.71
85096;BMP280;75436;53.502;10.030;2024-03-07T05:47:19;102585.25;;;3.63
85096;BMP280;75436;53.502;10.030;2024-03-07T05:49:45;102583.38;;;3.52
85096;BMP280;75436;53.502;10.030;2024-03-07T05:52:11;102593.03;;;3.63
85096;BMP280;75436;53.502;10.030;2024-03-07T05:54:36;102603.56;;;3.68
85096;BMP280;75436;53.502;10.030;2024-03-07T05:57:02;102589.16;;;3.54
85096;BMP280;75436;53.502;10.030;2024-03-07T05:59:28;102586.34;;;3.56
85096;BMP280;75436;53.502;10.030;2024-03-07T06:01:56;102582.38;;;3.53
85096;BMP280;75436;53.502;10.030;2024-03-07T06:04:22;102569.66;;;3.63
85096;BMP280;75436;53.502;10.030;2024-03-07T06:06:48;102590.75;;;3.55
85096;BMP280;75436;53.502;10.030;2024-03-07T06:09:14;102578.69;;;3.43
85096;BMP280;75436;53.502;10.030;2024-03-07T06:11:40;102577.59;;;3.50
85096;BMP280;75436;53.502;10.030;2024-03-07T06:14:09;102568.94;;;3.38
85096;BMP280;75436;53.502;10.030;2024-03-07T06:16:39;102573.22;;;3.33
85096;BMP280;75436;53.502;10.030;2024-03-07T06:19:06;102572.91;;;3.41
85096;BMP280;75436;53.502;10.030;2024-03-07T06:21:34;102597.31;;;3.40
85096;BMP280;75436;53.502;10.030;2024-03-07T06:24:01;102607.06;;;3.44
85096;BMP280;75436;53.502;10.030;2024-03-07T06:26:37;102606.63;;;3.30
85096;BMP280;75436;53.502;10.030;2024-03-07T06:29:13;102604.06;;;3.41
85096;BMP280;75436;53.502;10.030;2024-03-07T06:31:41;102597.88;;;3.42
85096;BMP280;75436;53.502;10.030;2024-03-07T06:34:07;102626.59;;;3.47
85096;BMP280;75436;53.502;10.030;2024-03-07T06:36:34;102616.00;;;3.31
85096;BMP280;75436;53.502;10.030;2024-03-07T06:39:00;102641.66;;;3.38
85096;BMP280;75436;53.502;10.030;2024-03-07T06:41:25;102653.53;;;3.34
85096;BMP280;75436;53.502;10.030;2024-03-07T06:43:51;102654.56;;;3.27
85096;BMP280;75436;53.502;10.030;2024-03-07T06:46:20;102632.63;;;3.05
85096;BMP280;75436;53.502;10.030;2024-03-07T06:48:45;102636.69;;;2.95
85096;BMP280;75436;53.502;10.030;2024-03-07T06:51:11;102634.44;;;3.05
85096;BMP280;75436;53.502;10.030;2024-03-07T06:53:36;102646.66;;;2.98
85096;BMP280;75436;53.502;10.030;2024-03-07T06:56:02;102655.03;;;3.00
85096;BMP280;75436;53.502;10.030;2024-03-07T06:58:27;102652.06;;;2.97
85096;BMP280;75436;53.502;10.030;2024-03-07T07:00:54;102656.09;;;2.93
85096;BMP280;75436;53.502;10.030;2024-03-07T07:03:20;102672.38;;;3.00
85096;BMP280;75436;53.502;10.030;2024-03-07T07:05:48;102684.47;;;3.12
85096;BMP280;75436;53.502;10.030;2024-03-07T07:08:13;102681.72;;;3.07
85096;BMP280;75436;53.502;10.030;2024-03-07T07:10:39;102687.91;;;3.06
85096;BMP280;75436;53.502;10.030;2024-03-07T07:13:08;102682.25;;;3.15
85096;BMP280;75436;53.502;10.030;2024-03-07T07:15:35;102683.19;;;3.21
85096;BMP280;75436;53.502;10.030;2024-03-07T07:18:02;102666.19;;;3.25
85096;BMP280;75436;53.502;10.030;2024-03-07T07:20:29;102692.50;;;3.10
85096;BMP280;75436;53.502;10.030;2024-03-07T07:22:55;102690.34;;;3.01
85096;BMP280;75436;53.502;10.030;2024-03-07T07:25:22;102693.59;;;2.97
85096;BMP280;75436;53.502;10.030;2024-03-07T07:27:49;102698.19;;;2.95
85096;BMP280;75436;53.502;10.030;2024-03-07T07:30:18;102705.72;;;3.02
85096;BMP280;75436;53.502;10.030;2024-03-07T07:32:45;102691.34;;;3.06
85096;BMP280;75436;53.502;10.030;2024-03-07T07:35:11;102682.44;;;3.14
85096;BMP280;75436;53.502;10.030;2024-03-07T07:37:46;102713.47;;;3.09
85096;BMP280;75436;53.502;10.030;2024-03-07T07:40:16;102713.66;;;3.07
85096;BMP280;75436;53.502;10.030;2024-03-07T07:42:48;102709.44;;;3.13
85096;BMP280;75436;53.502;10.030;2024-03-07T07:45:18;102737.69;;;3.21
85096;BMP280;75436;53.502;10.030;2024-03-07T07:47:47;102730.91;;;3.02
85096;BMP280;75436;53.502;10.030;2024-03-07T07:50:16;102756.06;;;3.26
85096;BMP280;75436;53.502;10.030;2024-03-07T07:52:54;102760.22;;;3.51
85096;BMP280;75436;53.502;10.030;2024-03-07T07:55:27;102784.84;;;3.48
85096;BMP280;75436;53.502;10.030;2024-03-07T07:57:55;102770.00;;;3.31
85096;BMP280;75436;53.502;10.030;2024-03-07T08:00:24;102771.44;;;3.21
85096;BMP280;75436;53.502;10.030;2024-03-07T08:02:53;102757.03;;;3.25
85096;BMP280;75436;53.502;10.030;2024-03-07T08:05:24;102759.88;;;3.23
85096;BMP280;75436;53.502;10.030;2024-03-07T08:07:54;102762.69;;;3.22
85096;BMP280;75436;53.502;10.030;2024-03-07T08:10:24;102741.75;;;3.17
85096;BMP280;75436;53.502;10.030;2024-03-07T08:12:53;102741.28;;;3.26
85096;BMP280;75436;53.502;10.030;2024-03-07T08:15:27;102753.91;;;3.40
85096;BMP280;75436;53.502;10.030;2024-03-07T08:17:53;102752.78;;;3.36
85096;BMP280;75436;53.502;10.030;2024-03-07T08:20:20;102753.91;;;3.40
85096;BMP280;75436;53.502;10.030;2024-03-07T08:22:48;102759.00;;;3.53
85096;BMP280;75436;53.502;10.030;2024-03-07T08:25:22;102750.44;;;3.53
85096;BMP280;75436;53.502;10.030;2024-03-07T08:27:49;102739.22;;;3.52
85096;BMP280;75436;53.502;10.030;2024-03-07T08:30:16;102727.91;;;3.47
85096;BMP280;75436;53.502;10.030;2024-03-07T08:32:44;102720.28;;;3.69
85096;BMP280;75436;53.502;10.030;2024-03-07T08:35:11;102753.47;;;3.67
85096;BMP280;75436;53.502;10.030;2024-03-07T08:37:38;102777.06;;;3.66
85096;BMP280;75436;53.502;10.030;2024-03-07T08:40:05;102781.75;;;3.58
85096;BMP280;75436;53.502;10.030;2024-03-07T08:42:33;102772.00;;;3.53
85096;BMP280;75436;53.502;10.030;2024-03-07T08:45:00;102766.66;;;3.48
85096;BMP280;75436;53.502;10.030;2024-03-07T08:47:32;102771.88;;;3.66
85096;BMP280;75436;53.502;10.030;2024-03-07T08:49:59;102750.22;;;3.72
85096;BMP280;75436;53.502;10.030;2024-03-07T08:52:25;102751.34;;;3.82
85096;BMP280;75436;53.502;10.030;2024-03-07T08:54:52;102780.97;;;4.10
85096;BMP280;75436;53.502;10.030;2024-03-07T08:57:18;102795.88;;;4.03
85096;BMP280;75436;53.502;10.030;2024-03-07T08:59:45;102820.06;;;4.39
85096;BMP280;75436;53.502;10.030;2024-03-07T09:02:11;102800.09;;;4.22
85096;BMP280;75436;53.502;10.030;2024-03-07T09:04:37;102815.06;;;4.38
85096;BMP280;75436;53.502;10.030;2024-03-07T09:07:04;102824.69;;;4.20
85096;BMP280;75436;53.502;10.030;2024-03-07T09:09:31;102832.78;;;4.12
85096;BMP280;75436;53.502;10.030;2024-03-07T09:11:57;102805.13;;;3.99
85096;BMP280;75436;53.502;10.030;2024-03-07T09:14:22;102785.97;;;3.76
85096;BMP280;75436;53.502;10.030;2024-03-07T09:16:48;102807.13;;;4.15
85096;BMP280;75436;53.502;10.030;2024-03-07T09:19:14;102805.91;;;4.18
85096;BMP280;75436;53.502;10.030;2024-03-07T09:21:45;102800.13;;;4.16
85096;BMP280;75436;53.502;10.030;2024-03-07T09:24:15;102770.22;;;4.07
85096;BMP280;75436;53.502;10.030;2024-03-07T09:26:41;102756.94;;;4.15
85096;BMP280;75436;53.502;10.030;2024-03-07T09:29:06;102762.09;;;4.03
85096;BMP280;75436;53.502;10.030;2024-03-07T09:31:32;102774.69;;;4.18
85096;BMP280;75436;53.502;10.030;2024-03-07T09:33:58;102768.94;;;3.98
85096;BMP280;75436;53.502;10.030;2024-03-07T09:36:24;102738.38;;;3.94
85096;BMP280;75436;53.502;10.030;2024-03-07T09:38:50;102740.25;;;4.04
85096;BMP280;75436;53.502;10.030;2024-03-07T09:41:16;102732.34;;;3.99
85096;BMP280;75436;53.502;10.030;2024-03-07T09:43:43;102742.41;;;3.90
85096;BMP280;75436;53.502;10.030;2024-03-07T09:46:12;102726.75;;;3.96
85096;BMP280;75436;53.502;10.030;2024-03-07T09:48:38;102744.44;;;4.05
85096;BMP280;75436;53.502;10.030;2024-03-07T09:51:04;102745.34;;;3.99
85096;BMP280;75436;53.502;10.030;2024-03-07T09:53:37;102734.97;;;4.11
85096;BMP280;75436;53.502;10.030;2024-03-07T09:56:03;102726.25;;;4.05
85096;BMP280;75436;53.502;10.030;2024-03-07T09:58:32;102734.69;;;4.01
85096;BMP280;75436;53.502;10.030;2024-03-07T10:01:01;102715.19;;;4.10
85096;BMP280;75436;53.502;10.030;2024-03-07T10:03:29;102711.88;;;4.03
85096;BMP280;75436;53.502;10.030;2024-03-07T10:05:55;102704.72;;;4.16
85096;BMP280;75436;53.502;10.030;2024-03-07T10:08:22;102696.75;;;4.11
85096;BMP280;75436;53.502;10.030;2024-03-07T10:10:49;102690.13;;;4.15
85096;BMP280;75436;53.502;10.030;2024-03-07T10:13:15;102691.84;;;4.21
85096;BMP280;75436;53.502;10.030;2024-03-07T10:15:42;102676.06;;;4.45
85096;BMP280;75436;53.502;10.030;2024-03-07T10:18:08;102685.78;;;4.38
85096;BMP280;75436;53.502;10.030;2024-03-07T10:20:37;102662.44;;;4.72
85096;BMP280;75436;53.502;10.030;2024-03-07T10:23:04;102684.34;;;4.94
85096;BMP280;75436;53.502;10.030;2024-03-07T10:25:33;102716.59;;;5.16
85096;BMP280;75436;53.502;10.030;2024-03-07T10:27:58;102743.88;;;5.36
85096;BMP280;75436;53.502;10.030;2024-03-07T10:30:26;102726.00;;;5.28
85096;BMP280;75436;53.502;10.030;2024-03-07T10:32:59;102740.38;;;5.53
85096;BMP280;75436;53.502;10.030;2024-03-07T10:35:25;102719.13;;;5.72
85096;BMP280;75436;53.502;10.030;2024-03-07T10:37:52;102745.41;;;5.82
85096;BMP280;75436;53.502;10.030;2024-03-07T10:40:19;102775.69;;;6.22
85096;BMP280;75436;53.502;10.030;2024-03-07T10:42:48;102764.94;;;6.07
85096;BMP280;75436;53.502;10.030;2024-03-07T10:45:20;102745.72;;;5.97
85096;BMP280;75436;53.502;10.030;2024-03-07T10:47:51;102740.13;;;5.66
85096;BMP280;75436;53.502;10.030;2024-03-07T10:54:02;102733.00;;;5.61
85096;BMP280;75436;53.502;10.030;2024-03-07T10:59:38;102725.63;;;5.70
85096;BMP280;75436;53.502;10.030;2024-03-07T11:02:33;102732.22;;;5.88
85096;BMP280;75436;53.502;10.030;2024-03-07T11:05:05;102718.88;;;5.74
85096;BMP280;75436;53.502;10.030;2024-03-07T11:07:37;102699.50;;;5.81
85096;BMP280;75436;53.502;10.030;2024-03-07T11:10:04;102714.41;;;5.97
85096;BMP280;75436;53.502;10.030;2024-03-07T11:12:38;102706.84;;;5.84
85096;BMP280;75436;53.502;10.030;2024-03-07T11:15:07;102710.50;;;5.72
85096;BMP280;75436;53.502;10.030;2024-03-07T11:17:44;102698.78;;;5.86
85096;BMP280;75436;53.502;10.030;2024-03-07T11:20:24;102708.63;;;5.95
85096;BMP280;75436;53.502;10.030;2024-03-07T11:22:52;102723.41;;;6.17
85096;BMP280;75436;53.502;10.030;2024-03-07T11:25:22;102708.94;;;6.26
85096;BMP280;75436;53.502;10.030;2024-03-07T11:27:52;102713.44;;;6.14
85096;BMP280;75436;53.502;10.030;2024-03-07T11:30:22;102713.19;;;6.16
85096;BMP280;75436;53.502;10.030;2024-03-07T11:32:52;102712.88;;;6.12
85096;BMP280;75436;53.502;10.030;2024-03-07T11:35:40;102683.13;;;6.13
85096;BMP280;75436;53.502;10.030;2024-03-07T11:38:07;102708.09;;;6.21
85096;BMP280;75436;53.502;10.030;2024-03-07T11:43:04;102687.72;;;6.06
85096;BMP280;75436;53.502;10.030;2024-03-07T11:45:31;102695.25;;;6.19
85096;BMP280;75436;53.502;10.030;2024-03-07T11:48:06;102680.31;;;6.31
85096;BMP280;75436;53.502;10.030;2024-03-07T11:50:39;102673.31;;;6.48
85096;BMP280;75436;53.502;10.030;2024-03-07T11:53:06;102687.53;;;6.40
85096;BMP280;75436;53.502;10.030;2024-03-07T11:55:37;102685.97;;;6.23
85096;BMP280;75436;53.502;10.030;2024-03-07T11:58:12;102684.53;;;6.32
85096;BMP280;75436;53.502;10.030;2024-03-07T12:00:42;102697.97;;;6.40
85096;BMP280;75436;53.502;10.030;2024-03-07T12:03:11;102705.91;;;6.61
85096;BMP280;75436;53.502;10.030;2024-03-07T12:05:45;102696.53;;;6.33
85096;BMP280;75436;53.502;10.030;2024-03-07T12:08:11;102676.97;;;6.47
85096;BMP280;75436;53.502;10.030;2024-03-07T12:10:41;102676.72;;;6.48
85096;BMP280;75436;53.502;10.030;2024-03-07T12:13:11;102682.22;;;6.51
85096;BMP280;75436;53.502;10.030;2024-03-07T12:15:41;102683.59;;;6.70
85096;BMP280;75436;53.502;10.030;2024-03-07T12:18:08;102688.03;;;6.70
85096;BMP280;75436;53.502;10.030;2024-03-07T12:20:41;102684.81;;;6.63
85096;BMP280;75436;53.502;10.030;2024-03-07T12:23:11;102688.56;;;6.88
85096;BMP280;75436;53.502;10.030;2024-03-07T12:25:38;102675.28;;;6.57
85096;BMP280;75436;53.502;10.030;2024-03-07T12:28:10;102673.00;;;6.60
85096;BMP280;75436;53.502;10.030;2024-03-07T12:33:12;102652.75;;;6.67
85096;BMP280;75436;53.502;10.030;2024-03-07T12:35:42;102670.78;;;6.85
85096;BMP280;75436;53.502;10.030;2024-03-07T12:38:09;102651.66;;;6.63
85096;BMP280;75436;53.502;10.030;2024-03-07T12:40:36;102657.72;;;6.69
85096;BMP280;75436;53.502;10.030;2024-03-07T12:43:21;102658.59;;;6.74
85096;BMP280;75436;53.502;10.030;2024-03-07T12:45:53;102657.41;;;6.65
85096;BMP280;75436;53.502;10.030;2024-03-07T12:48:20;102642.53;;;6.82
85096;BMP280;75436;53.502;10.030;2024-03-07T12:50:49;102649.72;;;6.75
85096;BMP280;75436;53.502;10.030;2024-03-07T12:53:22;102657.81;;;6.74
85096;BMP280;75436;53.502;10.030;2024-03-07T12:55:49;102645.28;;;6.76
85096;BMP280;75436;53.502;10.030;2024-03-07T12:58:15;102640.06;;;6.76
85096;BMP280;75436;53.502;10.030;2024-03-07T13:00:41;102652.84;;;6.93
85096;BMP280;75436;53.502;10.030;2024-03-07T13:03:07;102663.44;;;7.03
85096;BMP280;75436;53.502;10.030;2024-03-07T13:05:35;102680.00;;;7.30
85096;BMP280;75436;53.502;10.030;2024-03-07T13:08:08;102674.31;;;7.33
85096;BMP280;75436;53.502;10.030;2024-03-07T13:10:46;102670.53;;;7.45
85096;BMP280;75436;53.502;10.030;2024-03-07T13:13:11;102662.88;;;7.17
85096;BMP280;75436;53.502;10.030;2024-03-07T13:15:38;102660.56;;;7.21
85096;BMP280;75436;53.502;10.030;2024-03-07T13:18:05;102649.53;;;6.98
85096;BMP280;75436;53.502;10.030;2024-03-07T13:20:31;102641.56;;;6.88
85096;BMP280;75436;53.502;10.030;2024-03-07T13:22:57;102638.59;;;7.01
85096;BMP280;75436;53.502;10.030;2024-03-07T13:25:26;102646.19;;;7.23
85096;BMP280;75436;53.502;10.030;2024-03-07T13:28:00;102651.94;;;7.20
85096;BMP280;75436;53.502;10.030;2024-03-07T13:30:29;102644.63;;;7.22
85096;BMP280;75436;53.502;10.030;2024-03-07T13:32:59;102640.44;;;7.21
85096;BMP280;75436;53.502;10.030;2024-03-07T13:35:25;102647.41;;;7.32
85096;BMP280;75436;53.502;10.030;2024-03-07T13:37:53;102641.34;;;7.32
85096;BMP280;75436;53.502;10.030;2024-03-07T13:40:24;102647.00;;;7.45
85096;BMP280;75436;53.502;10.030;2024-03-07T13:42:52;102646.50;;;7.48
85096;BMP280;75436;53.502;10.030;2024-03-07T13:45:23;102655.81;;;7.60
85096;BMP280;75436;53.502;10.030;2024-03-07T13:47:52;102656.50;;;7.77
85096;BMP280;75436;53.502;10.030;2024-03-07T13:50:21;102668.72;;;7.72
85096;BMP280;75436;53.502;10.030;2024-03-07T13:52:49;102653.53;;;7.95
85096;BMP280;75436;53.502;10.030;2024-03-07T14:04:38;102682.78;;;8.49
85096;BMP280;75436;53.502;10.030;2024-03-07T14:11:01;102686.25;;;8.54
85096;BMP280;75436;53.502;10.030;2024-03-07T14:17:22;102723.00;;;9.60
85096;BMP280;75436;53.502;10.030;2024-03-07T14:20:31;102719.63;;;9.84
85096;BMP280;75436;53.502;10.030;2024-03-07T14:26:12;102729.59;;;10.71
85096;BMP280;75436;53.502;10.030;2024-03-07T14:31:05;102721.78;;;10.17
85096;BMP280;75436;53.502;10.030;2024-03-07T14:36:35;102704.50;;;9.31
85096;BMP280;75436;53.502;10.030;2024-03-07T14:39:06;102694.78;;;8.76